首页
METAR-TAF:

METAR-TAF

机场 :

Lossiemouth, 苏格兰

纬度: 57-43N, 经度: 003-19W, 海拔: 13米

当前天气观测

该预报发布于39分钟前的09:50 UTC
风速12节,风向东转东南
温度 15°C
湿度 63%
气压 1014 hPa
能见度10公里或以上
少量云层高于3000英尺
散云层高于10000英尺
多云层高于15000英尺

METAR: EGQS 190950Z 11012KT 9999 FEW030 SCT100 BKN150 15/08 Q1014 RMK BLU

时间: 11:29 (10:29 UTC)

预报

该预报发布于3小时和9分钟前的07:20 UTC
预报有效从19日的 09点(UTC)到 20日的 03点(UTC)
风速10节,风向东转东南
能见度10公里或以上
少量云层高于4500英尺
几率 40% :
短暂存在
从 19日的 11点(UTC)到 19日的 20点(UTC)
能見度: 6000
散云层高于2400英尺
阵雨

TAF: EGQS 190720Z 1909/2003 12010KT 9999 FEW045 PROB40 TEMPO 1911/1920 6000 SHRA SCT024

超过4000个机场的气象观测和天气预报(METAR&TAF报告)。

可查询的气象台以黄色和红色小点在地图上表示。

将鼠标移到小点上方,可查看气象台名称。

然后点击查看天气观测和预报。

如需切换地图:点击带黑十字的绿色按钮放大地图;点击带横线的绿色按钮缩小地图;或者点击绿色箭头查看邻近地区的地图。


METAR-TAF: